Argyle Township, Maine
Current Conditions -  °F | °C
As of 12:53 PM on Saturday 25 Oct 2014 (Local Time) from KBGR Reporting Station
Broken Clouds Broken Clouds  
Wind Chill: 58°   Ceiling: 25000
Heat Index: 58°   Visibility: 10mi
Dew Point: 35°   Wind: 9mph
Humidity: 42%   Direction: 320°NW
Pressure: 29.59"   Gusts: NA
Location:  45.0236°N, 68.7394°W
Report Text: KBGR 251653Z 32008KT 10SM FEW060 SCT130 BKN250 14/02 A2959 RMK AO2 SLP021 T01440017
Loading
Personal Weather Stations






























Interactive Weather Map
Tropical Storm Tracking
New forecast layout! Learn more

10-Day Weather Forecast

Advertisements
Track Severe Weather on mobile